Pullman Moscow Regional Airport
KPUW : now visible

Airfield :











YOU CAN JOIN US ON...

 
LOGIN :

Register | Disclaimer

   EN    FR    IT 

 









Legend :    VFR   Marginal VFR   IFR   Intensive IFR   Very Intensive IFR
Visi :
Ceiling :
>= 8 km
>= 3000ft
5 to 8 km
1000 to 3000 ft
1500m to 5 km
500 to 1000 ft
800 to 1500m
200 to 500 ft
< 800m
< 200 ft
Symbols :   Thunderstorms  Fog  Heavy snow  Heavy precipitations  Wind > 20 kt






- Airport Elevation : 2556 ft
- IATA code : PUW


KPUW - Pullman Moscow Regional

CURRENT METAR :
  • 031753Z AUTO 27010G16KT 6SM HZ FEW002 23/10 A3015 RMK AO2 SLP195 T02330100 10244 20167 51002

EXPIRED METARs :
  • 031653Z AUTO 25012G19KT 5SM HZ FEW002 23/09 A3015 RMK AO2 SLP194 T02280094
  • 031553Z AUTO 25010KT 5SM HZ CLR 22/10 A3014 RMK AO2 SLP191 T02170100

TAF KPUW
Valid from the 03 at 18:00 until the 04 at 18:00 UTC


031724Z 0318/0418 25010G15KT 5SM HZ SKC
FM040500 VRB04KT P6SM SKC
KZSE FIR / North America



MET'MAP, your aeronautical weather chart ! - Copyright ORBIFLY December 2007 - Disclaimer

ORBIFLY MET'MAP TEAM :

Programming & Development : Alexandra Zaïnal
Concept & original design : Baudouin d'Aumeries
Assistance for programming : Marc-Olivier Méhu
Technical & hardware support : Manuel Goepfert

Contact : metmap@orbifly.com




SOURCES & CREDITS :

   NOAA       Earth
Advisory